Time;durP1;ratioP1;P1;durP2;ratioP2;P2;SDS_P1;SDS_P2;PMS_P1;PMS_P2;Temp;Humidity;BMP_temperature;BMP_pressure;BME280_temperature;BME280_humidity;BME280_pressure;Samples;Min_cycle;Max_cycle;Signal;HPM_P1;HPM_P2
2022/01/29 00:00:01;;;;;;;10.57;6.30;;;;;;;-146.19;100.00;58918.88;4996653;28;20452;-51
2022/01/29 00:02:29;;;;;;;11.00;7.35;;;;;;;-146.19;100.00;58918.88;5001371;28;20076;-47
2022/01/29 00:04:58;;;;;;;9.38;6.38;;;;;;;-146.19;100.00;58918.88;4994563;28;20690;-51
2022/01/29 00:07:26;;;;;;;10.20;6.28;;;;;;;-146.19;100.00;58918.88;5004262;28;20081;-49
2022/01/29 00:10:01;;;;;;;9.43;6.53;;;;;;;-146.19;100.00;58918.88;5000916;28;20094;-51
2022/01/29 00:12:30;;;;;;;9.68;7.18;;;;;;;-146.19;100.00;58918.88;4998200;28;20068;-53
2022/01/29 00:14:59;;;;;;;8.27;6.65;;;;;;;-146.19;100.00;58918.88;4999101;28;20092;-47
2022/01/29 00:17:28;;;;;;;8.77;7.03;;;;;;;-146.19;100.00;58918.88;4996350;28;20089;-52
2022/01/29 00:19:57;;;;;;;11.65;7.38;;;;;;;-146.19;100.00;58918.88;4997153;28;21438;-54
2022/01/29 00:22:26;;;;;;;10.90;6.60;;;;;;;-146.19;100.00;58918.88;4979510;28;20201;-49
2022/01/29 00:24:56;;;;;;;9.05;6.53;;;;;;;-146.19;100.00;58918.88;4974898;28;20065;-48
2022/01/29 00:27:27;;;;;;;11.68;6.50;;;;;;;-146.19;100.00;58918.88;4973283;28;20519;-47
2022/01/29 00:29:55;;;;;;;13.73;7.20;;;;;;;-146.19;100.00;58918.88;4970709;28;20058;-47
2022/01/29 00:32:24;;;;;;;10.35;6.88;;;;;;;-146.19;100.00;58918.88;4974114;28;20074;-49
2022/01/29 00:34:54;;;;;;;11.40;6.90;;;;;;;-146.19;100.00;58918.88;4973961;28;20067;-52
2022/01/29 00:37:23;;;;;;;9.20;6.90;;;;;;;-146.19;100.00;58918.88;4978181;28;20070;-51
2022/01/29 00:39:51;;;;;;;11.85;7.03;;;;;;;-146.19;100.00;58918.88;4984125;28;20467;-47
2022/01/29 00:42:20;;;;;;;10.98;6.97;;;;;;;-146.19;100.00;58918.88;4980006;28;20062;-50
2022/01/29 00:44:48;;;;;;;10.68;6.82;;;;;;;-146.19;100.00;58918.88;4983557;28;20077;-48
2022/01/29 00:47:17;;;;;;;11.70;7.57;;;;;;;-146.19;100.00;58918.88;5007341;28;20535;-52
2022/01/29 00:49:46;;;;;;;11.32;7.75;;;;;;;-146.19;100.00;58918.88;4979175;28;20046;-50
2022/01/29 00:52:16;;;;;;;9.13;6.65;;;;;;;-146.19;100.00;58918.88;4977587;28;20174;-50
2022/01/29 00:54:45;;;;;;;10.00;7.60;;;;;;;-146.19;100.00;58918.88;4981132;28;20488;-50
2022/01/29 00:57:13;;;;;;;10.35;7.25;;;;;;;-146.19;100.00;58918.88;4994520;28;20080;-49
2022/01/29 00:59:42;;;;;;;10.20;7.43;;;;;;;-146.19;100.00;58918.88;4994731;28;20065;-48
2022/01/29 01:02:11;;;;;;;8.65;7.00;;;;;;;-146.19;100.00;58918.88;4998881;28;20529;-53
2022/01/29 01:04:40;;;;;;;10.95;7.45;;;;;;;-146.19;100.00;58918.88;4993383;28;20069;-51
2022/01/29 01:07:10;;;;;;;13.65;7.50;;;;;;;-146.19;100.00;58918.88;4993564;28;20403;-50
2022/01/29 01:09:40;;;;;;;12.57;7.20;;;;;;;-146.19;100.00;58918.88;4998011;28;20522;-47
2022/01/29 01:12:09;;;;;;;10.55;7.35;;;;;;;-146.19;100.00;58918.88;4996683;28;20184;-51
2022/01/29 01:14:38;;;;;;;14.35;7.45;;;;;;;-146.19;100.00;58918.88;4996359;28;20082;-53
2022/01/29 01:17:07;;;;;;;8.95;7.20;;;;;;;-146.19;100.00;58918.88;4997650;28;20077;-54
2022/01/29 01:19:35;;;;;;;10.68;7.30;;;;;;;-146.19;100.00;58918.88;4994377;28;20070;-51
2022/01/29 01:22:05;;;;;;;10.45;7.15;;;;;;;-146.19;100.00;58918.88;4999885;28;20081;-47
2022/01/29 01:24:34;;;;;;;9.13;7.40;;;;;;;-146.19;100.00;58918.88;4996892;28;20062;-48
2022/01/29 01:27:05;;;;;;;10.13;7.87;;;;;;;-146.19;100.00;58918.88;4996793;28;20547;-52
2022/01/29 01:29:33;;;;;;;10.07;7.80;;;;;;;-146.19;100.00;58918.88;4993534;28;20468;-52
2022/01/29 01:32:02;;;;;;;11.00;7.63;;;;;;;-146.19;100.00;58918.88;4996104;28;20240;-51
2022/01/29 01:34:34;;;;;;;13.70;8.23;;;;;;;-146.19;100.00;58918.88;4992423;28;20074;-47
2022/01/29 01:37:08;;;;;;;11.90;8.40;;;;;;;-146.19;100.00;58918.88;4998268;28;20066;-53
2022/01/29 01:39:39;;;;;;;12.48;8.18;;;;;;;-146.19;100.00;58918.88;4995991;28;20061;-48
2022/01/29 01:42:09;;;;;;;;;;;;;;;-146.19;100.00;58918.88;4991371;28;20070;-48
2022/01/29 01:44:40;;;;;;;9.27;7.07;;;;;;;-146.19;100.00;58918.88;4972942;28;19980;-49
2022/01/29 01:47:08;;;;;;;12.77;8.02;;;;;;;-146.19;100.00;58918.88;4997007;28;20078;-48
2022/01/29 01:49:37;;;;;;;13.15;7.72;;;;;;;-146.19;100.00;58918.88;4993185;28;20058;-47
2022/01/29 01:52:08;;;;;;;11.63;8.13;;;;;;;-146.19;100.00;58918.88;4997663;28;20077;-52
2022/01/29 01:54:37;;;;;;;13.05;8.02;;;;;;;-146.19;100.00;58918.88;4988671;28;20062;-46
2022/01/29 01:57:06;;;;;;;14.10;8.02;;;;;;;-146.19;100.00;58918.88;4978894;28;20603;-51
2022/01/29 01:59:36;;;;;;;11.93;8.52;;;;;;;-146.19;100.00;58918.88;4978307;28;20086;-51
2022/01/29 02:02:05;;;;;;;10.15;7.95;;;;;;;-146.19;100.00;58918.88;4996831;28;20658;-48
2022/01/29 02:04:34;;;;;;;15.00;8.13;;;;;;;-146.19;100.00;58918.88;4988066;28;20099;-49
2022/01/29 02:07:02;;;;;;;12.45;8.15;;;;;;;-146.19;100.00;58918.88;4999449;28;20088;-47
2022/01/29 02:09:32;;;;;;;16.30;8.13;;;;;;;-146.19;100.00;58918.88;4991336;28;20081;-51
2022/01/29 02:12:03;;;;;;;9.30;7.68;;;;;;;-146.19;100.00;58918.88;4990214;28;20062;-47
2022/01/29 02:14:33;;;;;;;;;;;;;;;-146.19;100.00;58918.88;4993840;28;20457;-48
2022/01/29 02:17:04;;;;;;;10.30;7.90;;;;;;;-146.19;100.00;58918.88;4990256;28;20407;-48
2022/01/29 02:19:33;;;;;;;10.95;8.25;;;;;;;-146.19;100.00;58918.88;4995567;28;20971;-51
2022/01/29 02:22:03;;;;;;;10.23;8.20;;;;;;;-146.19;100.00;58918.88;4999142;28;20919;-49
2022/01/29 02:24:31;;;;;;;17.52;9.00;;;;;;;-146.19;100.00;58918.88;5000367;28;20091;-49
2022/01/29 02:27:00;;;;;;;11.88;8.23;;;;;;;-146.19;100.00;58918.88;5002049;28;20069;-53
2022/01/29 02:29:29;;;;;;;11.77;8.20;;;;;;;-146.19;100.00;58918.88;5001022;28;20081;-49
2022/01/29 02:31:58;;;;;;;10.15;7.53;;;;;;;-146.19;100.00;58918.88;5000449;28;20372;-48
2022/01/29 02:34:30;;;;;;;10.60;7.75;;;;;;;-146.19;100.00;58918.88;4999792;28;20069;-50
2022/01/29 02:36:59;;;;;;;9.10;6.97;;;;;;;-146.19;100.00;58918.88;4999728;28;20062;-49
2022/01/29 02:39:28;;;;;;;12.35;8.00;;;;;;;-146.19;100.00;58918.88;4998262;28;20551;-49
2022/01/29 02:41:59;;;;;;;11.85;7.35;;;;;;;-146.19;100.00;58918.88;5000665;28;20150;-55
2022/01/29 02:44:27;;;;;;;9.63;7.15;;;;;;;-146.19;100.00;58918.88;5006081;28;20483;-52
2022/01/29 02:47:03;;;;;;;10.45;7.97;;;;;;;-146.19;100.00;58918.88;5001116;28;20073;-51
2022/01/29 02:49:31;;;;;;;10.23;7.70;;;;;;;-146.19;100.00;58918.88;4999169;28;20065;-53
2022/01/29 02:52:00;;;;;;;11.20;7.45;;;;;;;-146.19;100.00;58918.88;4998966;28;20069;-50
2022/01/29 02:54:30;;;;;;;11.35;7.82;;;;;;;-146.19;100.00;58918.88;5001556;28;20076;-46
2022/01/29 02:56:58;;;;;;;9.30;7.43;;;;;;;-146.19;100.00;58918.88;5004857;28;20523;-52
2022/01/29 02:59:27;;;;;;;10.93;7.93;;;;;;;-146.19;100.00;58918.88;4999376;28;20077;-52
2022/01/29 03:01:55;;;;;;;11.23;8.00;;;;;;;-146.19;100.00;58918.88;4997158;28;20450;-51
2022/01/29 03:04:24;;;;;;;10.30;6.93;;;;;;;-146.19;100.00;58918.88;5002125;28;20504;-49
2022/01/29 03:06:52;;;;;;;10.40;7.38;;;;;;;-146.19;100.00;58918.88;5000728;28;20062;-55
2022/01/29 03:09:21;;;;;;;11.60;7.10;;;;;;;-146.19;100.00;58918.88;5000690;28;20069;-52
2022/01/29 03:11:50;;;;;;;10.50;6.80;;;;;;;-146.19;100.00;58918.88;4999401;28;20535;-53
2022/01/29 03:14:19;;;;;;;12.13;8.35;;;;;;;-146.19;100.00;58918.88;5002982;28;20479;-50
2022/01/29 03:16:47;;;;;;;12.32;7.45;;;;;;;-146.19;100.00;58918.88;4999577;28;20203;-48
2022/01/29 03:19:16;;;;;;;11.00;7.40;;;;;;;-146.19;100.00;58918.88;4998780;28;20092;-49
2022/01/29 03:21:44;;;;;;;13.10;7.95;;;;;;;-146.19;100.00;58918.88;4999452;28;20077;-49
2022/01/29 03:24:13;;;;;;;9.40;7.30;;;;;;;-146.19;100.00;58918.88;5000797;28;20459;-53
2022/01/29 03:26:41;;;;;;;8.82;7.60;;;;;;;-146.19;100.00;58918.88;5001156;28;20081;-49
2022/01/29 03:29:11;;;;;;;10.45;7.57;;;;;;;-146.19;100.00;58918.88;5002741;28;20479;-50
2022/01/29 03:31:39;;;;;;;12.55;7.93;;;;;;;-146.19;100.00;58918.88;4998099;28;20580;-49
2022/01/29 03:34:08;;;;;;;9.85;7.20;;;;;;;-146.19;100.00;58918.88;4996358;28;20088;-51
2022/01/29 03:36:36;;;;;;;11.80;7.80;;;;;;;-146.19;100.00;58918.88;4998381;28;20081;-50
2022/01/29 03:39:05;;;;;;;11.75;7.60;;;;;;;-146.19;100.00;58918.88;5000398;28;20065;-52
2022/01/29 03:41:33;;;;;;;11.30;8.05;;;;;;;-146.19;100.00;58918.88;4992762;28;20088;-48
2022/01/29 03:44:05;;;;;;;11.57;7.45;;;;;;;-146.19;100.00;58918.88;5002476;28;20061;-51
2022/01/29 03:46:36;;;;;;;9.82;7.68;;;;;;;-146.19;100.00;58918.88;5002489;28;20080;-54
2022/01/29 03:49:06;;;;;;;11.38;7.18;;;;;;;-146.19;100.00;58918.88;4999820;28;20543;-50
2022/01/29 03:51:35;;;;;;;10.55;6.95;;;;;;;-146.19;100.00;58918.88;4997865;28;20038;-53
2022/01/29 03:54:04;;;;;;;10.35;7.30;;;;;;;-146.19;100.00;58918.88;5000705;28;20069;-49
2022/01/29 03:56:32;;;;;;;12.68;7.43;;;;;;;-146.19;100.00;58918.88;5002981;28;20076;-49
2022/01/29 03:59:00;;;;;;;10.10;7.03;;;;;;;-146.19;100.00;58918.88;4980177;28;20364;-54
2022/01/29 04:01:29;;;;;;;13.05;7.60;;;;;;;-146.19;100.00;58918.88;4972974;28;20120;-47
2022/01/29 04:03:59;;;;;;;13.52;7.18;;;;;;;-146.19;100.00;58918.88;4990621;28;20065;-55
2022/01/29 04:06:28;;;;;;;9.95;7.72;;;;;;;-146.19;100.00;58918.88;4991479;28;20528;-55
2022/01/29 04:08:56;;;;;;;12.05;7.93;;;;;;;-146.19;100.00;58918.88;4993183;28;20069;-51
2022/01/29 04:11:25;;;;;;;9.48;7.25;;;;;;;-146.19;100.00;58918.88;4999983;28;20542;-50
2022/01/29 04:13:54;;;;;;;11.52;6.80;;;;;;;-146.19;100.00;58918.88;4997965;28;20069;-54
2022/01/29 04:16:23;;;;;;;10.00;6.32;;;;;;;-146.19;100.00;58918.88;4993130;28;20074;-54
2022/01/29 04:18:51;;;;;;;9.30;7.38;;;;;;;-146.19;100.00;58918.88;4995230;28;20074;-49
2022/01/29 04:21:21;;;;;;;10.15;7.28;;;;;;;-146.19;100.00;58918.88;5000242;28;20076;-56
2022/01/29 04:23:49;;;;;;;8.60;6.43;;;;;;;-146.19;100.00;58918.88;4996913;28;20529;-52
2022/01/29 04:26:18;;;;;;;8.77;6.38;;;;;;;-146.19;100.00;58918.88;4997997;28;20532;-51
2022/01/29 04:28:47;;;;;;;10.73;7.30;;;;;;;-146.19;100.00;58918.88;5000262;28;20079;-53
2022/01/29 04:31:18;;;;;;;9.93;6.45;;;;;;;-146.19;100.00;58918.88;4993226;28;20456;-50
2022/01/29 04:33:47;;;;;;;11.57;6.43;;;;;;;-146.19;100.00;58918.88;4992540;28;20069;-56
2022/01/29 04:36:16;;;;;;;10.30;7.00;;;;;;;-146.19;100.00;58918.88;4995505;28;20529;-53
2022/01/29 04:38:45;;;;;;;8.60;6.30;;;;;;;-146.19;100.00;58918.88;4997105;28;20551;-49
2022/01/29 04:41:15;;;;;;;8.13;7.00;;;;;;;-146.19;100.00;58918.88;4999504;28;20076;-56
2022/01/29 04:43:43;;;;;;;10.03;6.60;;;;;;;-146.19;100.00;58918.88;4994174;28;20532;-53
2022/01/29 04:46:12;;;;;;;9.65;6.50;;;;;;;-146.19;100.00;58918.88;4999476;28;20077;-57
2022/01/29 04:48:40;;;;;;;10.20;7.30;;;;;;;-146.19;100.00;58918.88;4997783;28;20080;-53
2022/01/29 04:51:09;;;;;;;8.90;6.85;;;;;;;-146.19;100.00;58918.88;4998641;28;20065;-57
2022/01/29 04:53:40;;;;;;;11.68;7.20;;;;;;;-146.19;100.00;58918.88;4995387;28;20144;-52
2022/01/29 04:56:10;;;;;;;9.77;6.70;;;;;;;-146.19;100.00;58918.88;5000698;28;20077;-55
2022/01/29 04:58:39;;;;;;;8.65;6.70;;;;;;;-146.19;100.00;58918.88;4996946;28;20070;-47
2022/01/29 05:01:07;;;;;;;12.20;6.55;;;;;;;-146.19;100.00;58918.88;4996553;28;20536;-54
2022/01/29 05:03:36;;;;;;;10.30;7.13;;;;;;;-146.19;100.00;58918.88;4995452;28;20061;-54
2022/01/29 05:06:10;;;;;;;8.45;6.63;;;;;;;-146.19;100.00;58918.88;5000103;28;20077;-51
2022/01/29 05:08:39;;;;;;;10.05;6.70;;;;;;;-146.19;100.00;58918.88;4995615;28;20081;-53
2022/01/29 05:11:08;;;;;;;11.27;6.90;;;;;;;-146.19;100.00;58918.88;5001881;28;20086;-47
2022/01/29 05:13:40;;;;;;;10.23;6.82;;;;;;;-146.19;100.00;58918.88;4999314;28;20058;-46
2022/01/29 05:27:15;;;;;;;11.27;7.15;;;;;;;-146.19;100.00;58918.88;4996560;28;20061;-50
2022/01/29 05:29:44;;;;;;;9.75;6.78;;;;;;;-146.19;100.00;58918.88;4992791;28;20736;-50
2022/01/29 05:32:15;;;;;;;9.15;6.28;;;;;;;-146.19;100.00;58918.88;4974937;28;20096;-53
2022/01/29 05:34:43;;;;;;;10.13;6.38;;;;;;;-146.19;100.00;58918.88;4969740;28;20454;-53
2022/01/29 05:37:32;;;;;;;9.95;6.32;;;;;;;-146.19;100.00;58918.88;4977357;28;20074;-49
2022/01/29 05:40:00;;;;;;;8.38;6.28;;;;;;;-146.19;100.00;58918.88;4987567;28;20069;-49
2022/01/29 05:42:28;;;;;;;9.40;6.20;;;;;;;-146.19;100.00;58918.88;4995913;28;20070;-49
2022/01/29 05:44:58;;;;;;;7.50;6.20;;;;;;;-146.19;100.00;58918.88;4994116;28;20069;-47
2022/01/29 05:47:26;;;;;;;10.15;6.20;;;;;;;-146.19;100.00;58918.88;4999670;28;20089;-51
2022/01/29 05:49:59;;;;;;;9.02;6.60;;;;;;;-146.19;100.00;58918.88;4995958;28;20073;-52
2022/01/29 05:52:27;;;;;;;9.55;6.70;;;;;;;-146.19;100.00;58918.88;4995765;28;20062;-56
2022/01/29 05:54:56;;;;;;;8.32;5.93;;;;;;;-146.19;100.00;58918.88;4981274;28;20442;-51
2022/01/29 05:57:24;;;;;;;6.85;6.00;;;;;;;-146.19;100.00;58918.88;4989215;28;20069;-51
2022/01/29 05:59:53;;;;;;;9.65;6.18;;;;;;;-146.19;100.00;58918.88;4990643;28;20543;-48
2022/01/29 06:02:22;;;;;;;7.88;6.40;;;;;;;-146.19;100.00;58918.88;4975093;28;20094;-50
2022/01/29 06:04:51;;;;;;;11.00;6.65;;;;;;;-146.19;100.00;58918.88;4992431;28;20081;-50
2022/01/29 06:07:20;;;;;;;11.00;7.25;;;;;;;-146.19;100.00;58918.88;4989395;28;20484;-55
2022/01/29 06:09:49;;;;;;;10.57;6.65;;;;;;;-146.19;100.00;58918.88;4997916;28;20069;-51
2022/01/29 06:12:17;;;;;;;8.95;6.35;;;;;;;-146.19;100.00;58918.88;4996127;28;20077;-48
2022/01/29 06:14:46;;;;;;;9.15;7.22;;;;;;;-146.19;100.00;58918.88;4992519;28;20547;-52
2022/01/29 06:17:14;;;;;;;9.35;7.18;;;;;;;-146.19;100.00;58918.88;4998229;28;20069;-47
2022/01/29 06:19:44;;;;;;;8.52;6.05;;;;;;;-146.19;100.00;58918.88;4992798;28;20070;-53
2022/01/29 06:22:13;;;;;;;9.27;6.93;;;;;;;-146.19;100.00;58918.88;4994120;28;20077;-49
2022/01/29 06:24:42;;;;;;;11.80;7.93;;;;;;;-146.19;100.00;58918.88;4994987;28;20066;-48
2022/01/29 06:27:11;;;;;;;10.55;7.65;;;;;;;-146.19;100.00;58918.88;4993321;28;20077;-50
2022/01/29 06:29:39;;;;;;;9.73;7.32;;;;;;;-146.19;100.00;58918.88;4995043;28;20465;-50
2022/01/29 06:32:08;;;;;;;9.95;6.68;;;;;;;-146.19;100.00;58918.88;5000985;28;20654;-51
2022/01/29 06:34:36;;;;;;;11.32;7.75;;;;;;;-146.19;100.00;58918.88;4992623;28;20069;-47
2022/01/29 06:37:06;;;;;;;8.75;6.85;;;;;;;-146.19;100.00;58918.88;5002212;28;20140;-50
2022/01/29 06:39:35;;;;;;;9.57;6.17;;;;;;;-146.19;100.00;58918.88;4994449;28;20085;-50
2022/01/29 06:42:03;;;;;;;9.27;6.78;;;;;;;-146.19;100.00;58918.88;4997255;28;20469;-49
2022/01/29 06:44:32;;;;;;;9.70;6.25;;;;;;;-146.19;100.00;58918.88;4994774;28;20082;-46
2022/01/29 06:47:03;;;;;;;8.13;6.20;;;;;;;-146.19;100.00;58918.88;4995113;28;20474;-51
2022/01/29 06:49:33;;;;;;;9.27;6.93;;;;;;;-146.19;100.00;58918.88;4994168;28;20589;-56
2022/01/29 06:52:01;;;;;;;7.13;6.32;;;;;;;-146.19;100.00;58918.88;4983795;28;20062;-52
2022/01/29 06:54:31;;;;;;;10.07;6.65;;;;;;;-146.19;100.00;58918.88;4980367;28;20065;-51
2022/01/29 06:57:00;;;;;;;9.07;7.13;;;;;;;-146.19;100.00;58918.88;4997051;28;20076;-52
2022/01/29 06:59:28;;;;;;;13.02;7.15;;;;;;;-146.19;100.00;58918.88;4994719;28;20089;-53
2022/01/29 07:01:56;;;;;;;9.27;6.65;;;;;;;-146.19;100.00;58918.88;4997259;28;20066;-49
2022/01/29 07:04:25;;;;;;;9.25;7.22;;;;;;;-146.19;100.00;58918.88;4996267;28;20093;-51
2022/01/29 07:06:53;;;;;;;8.85;6.65;;;;;;;-146.19;100.00;58918.88;4999116;28;20077;-52
2022/01/29 07:09:22;;;;;;;8.43;6.50;;;;;;;-146.19;100.00;58918.88;4997440;28;20084;-55
2022/01/29 07:11:56;;;;;;;7.70;6.40;;;;;;;-146.19;100.00;58918.88;4997840;28;20092;-52
2022/01/29 07:14:24;;;;;;;9.02;6.32;;;;;;;-146.19;100.00;58918.88;5002137;28;20084;-53
2022/01/29 07:16:53;;;;;;;8.88;7.07;;;;;;;-146.19;100.00;58918.88;5005191;28;20066;-51
2022/01/29 07:19:21;;;;;;;9.00;6.85;;;;;;;-146.19;100.00;58918.88;4997181;28;20066;-52
2022/01/29 07:21:50;;;;;;;11.48;6.65;;;;;;;-146.19;100.00;58918.88;4999948;28;20462;-52
2022/01/29 07:24:18;;;;;;;10.95;6.57;;;;;;;-146.19;100.00;58918.88;4996992;28;20477;-47
2022/01/29 07:26:46;;;;;;;10.57;6.90;;;;;;;-146.19;100.00;58918.88;5000970;28;20555;-54
2022/01/29 07:29:16;;;;;;;10.15;6.95;;;;;;;-146.19;100.00;58918.88;4997409;28;20086;-52
2022/01/29 07:31:45;;;;;;;8.85;6.55;;;;;;;-146.19;100.00;58918.88;5000888;28;20073;-45
2022/01/29 07:34:13;;;;;;;14.07;6.82;;;;;;;-146.19;100.00;58918.88;5000863;28;20068;-54
2022/01/29 07:36:41;;;;;;;11.60;7.20;;;;;;;-146.19;100.00;58918.88;4998495;28;20042;-56
2022/01/29 07:39:10;;;;;;;12.65;7.03;;;;;;;-146.19;100.00;58918.88;4998593;28;20078;-53
2022/01/29 07:41:38;;;;;;;10.07;6.68;;;;;;;-146.19;100.00;58918.88;4998016;28;20085;-52
2022/01/29 07:44:07;;;;;;;12.18;6.63;;;;;;;-146.19;100.00;58918.88;5003620;28;20080;-52
2022/01/29 07:46:37;;;;;;;7.45;6.30;;;;;;;-146.19;100.00;58918.88;4998604;28;20633;-54
2022/01/29 07:49:05;;;;;;;11.23;7.13;;;;;;;-146.19;100.00;58918.88;4998828;28;20069;-51
2022/01/29 07:51:34;;;;;;;8.80;6.57;;;;;;;-146.19;100.00;58918.88;4996375;28;20065;-52
2022/01/29 07:54:02;;;;;;;8.32;6.50;;;;;;;-146.19;100.00;58918.88;4998890;28;20069;-47
2022/01/29 07:56:31;;;;;;;9.30;6.57;;;;;;;-146.19;100.00;58918.88;4996708;28;20449;-53
2022/01/29 07:58:59;;;;;;;13.48;6.72;;;;;;;-146.19;100.00;58918.88;4994933;28;20127;-51
2022/01/29 08:01:28;;;;;;;8.35;6.65;;;;;;;-146.19;100.00;58918.88;4993919;28;20065;-50
2022/01/29 08:03:58;;;;;;;11.68;7.18;;;;;;;-146.19;100.00;58918.88;4997425;28;20069;-56
2022/01/29 08:06:29;;;;;;;7.65;6.25;;;;;;;-146.19;100.00;58918.88;4996066;28;20072;-52
2022/01/29 08:08:57;;;;;;;9.73;6.72;;;;;;;-146.19;100.00;58918.88;5001591;28;20076;-53
2022/01/29 08:11:26;;;;;;;9.30;6.95;;;;;;;-146.19;100.00;58918.88;5006552;28;20085;-49
2022/01/29 08:13:55;;;;;;;8.20;6.85;;;;;;;-146.19;100.00;58918.88;4999987;28;20081;-49
2022/01/29 08:16:23;;;;;;;8.02;6.78;;;;;;;-146.19;100.00;58918.88;4995641;28;20070;-56
2022/01/29 08:23:41;;;;;;;12.90;7.05;;;;;;;6.26;100.00;97505.59;5091518;27;20642;-52
2022/01/29 08:26:10;;;;;;;9.77;6.95;;;;;;;6.17;100.00;97499.13;5040484;28;20085;-55
2022/01/29 08:28:39;;;;;;;10.20;8.30;;;;;;;6.37;100.00;97500.56;5024632;28;20042;-48
2022/01/29 08:31:07;;;;;;;11.10;7.28;;;;;;;6.95;100.00;97488.25;5017123;28;20576;-53
2022/01/29 08:33:36;;;;;;;11.00;7.65;;;;;;;6.94;100.00;97480.47;5012992;28;20587;-49
2022/01/29 08:36:07;;;;;;;9.80;6.75;;;;;;;6.51;100.00;97491.88;5018064;28;20073;-55
2022/01/29 08:38:36;;;;;;;9.52;6.72;;;;;;;7.04;100.00;97468.47;5015708;28;20136;-54
2022/01/29 08:41:06;;;;;;;9.65;6.03;;;;;;;7.22;100.00;97467.28;5018866;28;20081;-53
2022/01/29 08:43:34;;;;;;;8.05;5.63;;;;;;;7.05;100.00;97465.72;5014516;28;20038;-50
2022/01/29 08:46:03;;;;;;;8.05;5.82;;;;;;;6.96;100.00;97474.19;5013114;28;20074;-51
2022/01/29 08:53:37;;;;;;;10.02;7.10;;;;;;;7.11;100.00;97462.72;5060960;27;20647;-52
2022/01/29 08:56:05;;;;;;;11.68;6.45;;;;;;;6.95;100.00;97462.03;5002454;28;20074;-49
2022/01/29 08:58:34;;;;;;;7.57;6.00;;;;;;;7.11;100.00;97452.22;5014859;28;20531;-52
2022/01/29 09:01:07;;;;;;;10.85;5.97;;;;;;;7.19;100.00;97462.25;5019152;28;20069;-52
2022/01/29 09:03:36;;;;;;;20.17;5.88;;;;;;;6.63;100.00;97453.56;5017580;28;20076;-51
2022/01/29 09:06:06;;;;;;;10.63;5.33;;;;;;;6.39;100.00;97450.69;5022313;28;20065;-47
2022/01/29 09:08:36;;;;;;;8.05;5.32;;;;;;;6.53;100.00;97450.66;5019307;28;20515;-52
2022/01/29 09:11:05;;;;;;;9.25;6.15;;;;;;;6.73;100.00;97452.06;5024168;28;20193;-51
2022/01/29 09:13:33;;;;;;;9.27;6.07;;;;;;;6.51;100.00;97442.06;5000909;28;20101;-48
2022/01/29 09:16:01;;;;;;;10.35;6.20;;;;;;;6.56;100.00;97452.25;4993753;28;20462;-52
2022/01/29 09:18:30;;;;;;;7.55;5.57;;;;;;;6.60;100.00;97441.47;4994318;28;20077;-52
2022/01/29 09:20:59;;;;;;;9.93;5.28;;;;;;;6.56;100.00;97429.50;5001802;28;20064;-52
2022/01/29 09:23:27;;;;;;;14.95;4.65;;;;;;;6.59;100.00;97431.94;5014790;28;20078;-47
2022/01/29 09:26:02;;;;;;;7.97;5.47;;;;;;;6.59;100.00;97423.25;4998816;28;20506;-47
2022/01/29 09:28:31;;;;;;;8.63;4.68;;;;;;;6.72;100.00;97420.69;5014105;28;20475;-46
2022/01/29 09:30:59;;;;;;;7.35;5.68;;;;;;;6.86;100.00;97424.13;5021623;28;20092;-46
2022/01/29 09:33:28;;;;;;;10.02;5.65;;;;;;;7.11;100.00;97422.53;5022199;28;20073;-51
2022/01/29 09:35:56;;;;;;;10.00;5.50;;;;;;;7.13;100.00;97431.16;5022501;28;20104;-49
2022/01/29 09:38:25;;;;;;;19.17;5.70;;;;;;;7.18;100.00;97428.22;5017985;28;20089;-51
2022/01/29 09:40:55;;;;;;;8.57;4.60;;;;;;;6.55;100.00;97430.47;5019282;28;20072;-49
2022/01/29 09:43:27;;;;;;;6.55;4.10;;;;;;;7.07;100.00;97435.00;5012475;28;20078;-51
2022/01/29 09:45:55;;;;;;;9.48;5.05;;;;;;;6.61;100.00;97440.56;5017118;28;20093;-49
2022/01/29 09:48:26;;;;;;;6.28;4.50;;;;;;;-146.19;100.00;58918.88;5024494;28;20068;-52
2022/01/29 09:50:55;;;;;;;8.05;4.25;;;;;;;6.56;100.00;97445.22;5019068;28;20061;-55
2022/01/29 09:53:23;;;;;;;5.53;3.70;;;;;;;6.54;100.00;97452.38;5023375;28;20097;-50
2022/01/29 09:55:51;;;;;;;6.55;4.70;;;;;;;6.52;100.00;97442.91;5022236;28;20069;-53
2022/01/29 09:58:20;;;;;;;6.55;4.93;;;;;;;6.45;100.00;97447.69;5018057;28;20066;-53
2022/01/29 10:00:50;;;;;;;9.07;5.18;;;;;;;6.57;100.00;97456.56;5020596;28;20335;-46
2022/01/29 10:03:20;;;;;;;5.63;3.80;;;;;;;6.65;100.00;97462.19;5015821;28;20072;-46
2022/01/29 10:05:51;;;;;;;5.78;4.30;;;;;;;6.46;100.00;97456.38;5001666;28;20080;-46
2022/01/29 10:08:20;;;;;;;4.50;3.72;;;;;;;6.60;100.00;97444.09;5008941;28;20084;-49
2022/01/29 10:10:50;;;;;;;5.60;4.50;;;;;;;6.38;100.00;97454.25;4980732;28;20081;-48
2022/01/29 10:13:26;;;;;;;8.45;5.00;;;;;;;6.50;100.00;97447.41;5000579;28;20088;-48
2022/01/29 10:16:06;;;;;;;8.68;4.78;;;;;;;6.80;100.00;97440.22;5008282;28;20066;-52
2022/01/29 10:18:35;;;;;;;4.25;3.67;;;;;;;6.78;100.00;97436.03;5004543;28;20073;-48
2022/01/29 10:21:11;;;;;;;6.55;4.90;;;;;;;6.91;100.00;97436.94;5006711;28;20070;-50
2022/01/29 10:23:41;;;;;;;7.60;4.80;;;;;;;7.13;100.00;97428.53;4995077;28;20085;-50
2022/01/29 10:26:10;;;;;;;5.13;3.58;;;;;;;6.87;100.00;97410.06;5010100;28;20457;-47
2022/01/29 10:28:39;;;;;;;5.68;3.92;;;;;;;6.31;100.00;97417.09;5001484;28;20854;-54
2022/01/29 10:31:09;;;;;;;7.65;3.97;;;;;;;6.55;100.00;97408.66;5004421;28;20550;-50
2022/01/29 10:33:39;;;;;;;6.53;2.90;;;;;;;6.56;100.00;97407.72;5003208;28;20551;-50
2022/01/29 10:36:09;;;;;;;7.20;3.08;;;;;;;6.59;100.00;97407.53;5009092;28;20791;-51
2022/01/29 10:38:52;;;;;;;3.90;3.00;;;;;;;6.52;100.00;97414.09;5010745;28;20142;-54
2022/01/29 10:41:24;;;;;;;4.38;3.38;;;;;;;6.72;100.00;97405.81;4985981;28;20170;-48
2022/01/29 10:44:08;;;;;;;4.05;3.65;;;;;;;6.74;100.00;97384.72;5012859;28;20053;-50
2022/01/29 10:46:40;;;;;;;5.53;3.30;;;;;;;6.63;100.00;97398.53;5008074;28;20065;-53
2022/01/29 10:49:09;;;;;;;5.07;2.83;;;;;;;6.96;100.00;97413.06;5003294;28;20069;-55
2022/01/29 10:51:38;;;;;;;4.50;3.40;;;;;;;7.16;100.00;97403.88;5006889;28;20081;-50
2022/01/29 10:54:17;;;;;;;3.85;3.00;;;;;;;7.27;100.00;97409.28;5009533;28;20487;-50
2022/01/29 10:56:57;;;;;;;3.33;2.05;;;;;;;7.07;100.00;97397.47;5002136;28;20080;-51
2022/01/29 10:59:26;;;;;;;8.52;2.90;;;;;;;7.41;100.00;97400.50;4987602;28;20085;-48
2022/01/29 11:01:58;;;;;;;4.32;3.35;;;;;;;7.10;100.00;97386.78;4983469;28;20552;-53
2022/01/29 11:04:28;;;;;;;4.50;3.30;;;;;;;7.43;100.00;97385.47;5002355;28;20078;-51
2022/01/29 11:07:02;;;;;;;7.15;3.45;;;;;;;7.23;100.00;97382.41;5016445;28;20080;-53
2022/01/29 11:09:31;;;;;;;3.85;2.88;;;;;;;7.37;100.00;97356.09;5005889;28;20080;-51
2022/01/29 11:12:03;;;;;;;4.57;3.00;;;;;;;7.57;100.00;97385.38;5008470;28;20069;-49
2022/01/29 11:14:32;;;;;;;3.38;3.08;;;;;;;7.38;100.00;97365.63;5001033;28;20191;-49
2022/01/29 11:17:03;;;;;;;2.70;2.38;;;;;;;7.38;95.09;97367.41;5004760;28;21372;-52
2022/01/29 11:19:32;;;;;;;3.53;3.05;;;;;;;7.76;100.00;97371.88;5001580;28;20073;-52
2022/01/29 11:22:04;;;;;;;3.13;2.83;;;;;;;7.71;94.72;97366.94;5003483;28;20073;-54
2022/01/29 11:24:35;;;;;;;5.68;2.80;;;;;;;7.64;93.04;97363.06;4991989;28;20063;-51
2022/01/29 11:27:05;;;;;;;3.90;2.97;;;;;;;7.98;99.93;97379.09;4981113;28;20100;-56
2022/01/29 11:29:35;;;;;;;3.13;2.38;;;;;;;7.79;90.27;97363.78;4977498;28;20081;-50
2022/01/29 11:32:39;;;;;;;2.63;2.42;;;;;;;8.37;90.62;97374.66;4983298;28;20509;-49
2022/01/29 11:35:18;;;;;;;2.33;2.13;;;;;;;8.00;92.92;97366.72;4979463;28;20495;-53
2022/01/29 11:37:52;;;;;;;4.55;2.90;;;;;;;8.32;93.07;97361.81;5000797;28;20057;-47
2022/01/29 11:40:23;;;;;;;2.90;2.70;;;;;;;8.39;85.81;97343.88;4986278;28;20085;-54
2022/01/29 11:42:57;;;;;;;3.85;3.10;;;;;;;8.70;87.30;97351.22;5002166;28;20120;-50